sensor_id;sensor_type;location;lat;lon;timestamp;pressure;altitude;pressure_sealevel;temperature;humidity
23417;BME280;11881;42.432;25.632;2022-08-21T00:01:05;98497.50;;;24.57;100.00
23417;BME280;11881;42.432;25.632;2022-08-21T00:03:32;98497.19;;;24.54;100.00
23417;BME280;11881;42.432;25.632;2022-08-21T00:05:58;98491.06;;;24.63;100.00
23417;BME280;11881;42.432;25.632;2022-08-21T00:08:23;98470.78;;;24.71;100.00
23417;BME280;11881;42.432;25.632;2022-08-21T00:10:49;98486.13;;;24.77;100.00
23417;BME280;11881;42.432;25.632;2022-08-21T00:13:16;98480.75;;;24.82;100.00
23417;BME280;11881;42.432;25.632;2022-08-21T00:15:42;98485.47;;;24.70;100.00
23417;BME280;11881;42.432;25.632;2022-08-21T00:18:11;98476.13;;;24.83;100.00
23417;BME280;11881;42.432;25.632;2022-08-21T00:20:37;98477.25;;;24.87;100.00
23417;BME280;11881;42.432;25.632;2022-08-21T00:23:03;98470.97;;;24.86;100.00
23417;BME280;11881;42.432;25.632;2022-08-21T00:25:29;98472.84;;;25.03;100.00
23417;BME280;11881;42.432;25.632;2022-08-21T00:27:55;98472.38;;;25.06;100.00
23417;BME280;11881;42.432;25.632;2022-08-21T00:30:22;98469.38;;;25.07;100.00
23417;BME280;11881;42.432;25.632;2022-08-21T00:32:48;98475.41;;;25.31;100.00
23417;BME280;11881;42.432;25.632;2022-08-21T00:35:16;98469.69;;;25.33;100.00
23417;BME280;11881;42.432;25.632;2022-08-21T00:37:43;98469.97;;;25.31;100.00
23417;BME280;11881;42.432;25.632;2022-08-21T00:40:20;98467.88;;;25.16;100.00
23417;BME280;11881;42.432;25.632;2022-08-21T00:42:47;98467.31;;;24.98;100.00
23417;BME280;11881;42.432;25.632;2022-08-21T00:45:13;98469.38;;;25.07;100.00
23417;BME280;11881;42.432;25.632;2022-08-21T00:47:39;98476.13;;;24.83;100.00
23417;BME280;11881;42.432;25.632;2022-08-21T00:50:07;98479.31;;;24.80;100.00
23417;BME280;11881;42.432;25.632;2022-08-21T00:52:33;98476.84;;;24.78;100.00
23417;BME280;11881;42.432;25.632;2022-08-21T00:55:00;98489.75;;;24.83;100.00
23417;BME280;11881;42.432;25.632;2022-08-21T00:57:29;98493.66;;;25.09;100.00
23417;BME280;11881;42.432;25.632;2022-08-21T00:59:58;98482.25;;;25.12;100.00
23417;BME280;11881;42.432;25.632;2022-08-21T01:02:26;98486.97;;;25.16;100.00
23417;BME280;11881;42.432;25.632;2022-08-21T01:04:53;98479.22;;;25.30;100.00
23417;BME280;11881;42.432;25.632;2022-08-21T01:07:18;98459.59;;;25.33;100.00
23417;BME280;11881;42.432;25.632;2022-08-21T01:09:46;98461.28;;;25.34;100.00
23417;BME280;11881;42.432;25.632;2022-08-21T01:12:12;98451.13;;;25.30;100.00
23417;BME280;11881;42.432;25.632;2022-08-21T01:14:40;98447.91;;;25.11;100.00
23417;BME280;11881;42.432;25.632;2022-08-21T01:17:08;98441.22;;;25.02;100.00
23417;BME280;11881;42.432;25.632;2022-08-21T01:19:35;98435.66;;;25.13;100.00
23417;BME280;11881;42.432;25.632;2022-08-21T01:22:00;98448.72;;;25.11;100.00
23417;BME280;11881;42.432;25.632;2022-08-21T01:24:26;98455.44;;;25.26;100.00
23417;BME280;11881;42.432;25.632;2022-08-21T01:26:52;98456.25;;;25.26;100.00
23417;BME280;11881;42.432;25.632;2022-08-21T01:31:56;98435.47;;;25.42;100.00
23417;BME280;11881;42.432;25.632;2022-08-21T01:34:22;98423.13;;;25.39;100.00
23417;BME280;11881;42.432;25.632;2022-08-21T01:36:48;98412.09;;;25.24;100.00
23417;BME280;11881;42.432;25.632;2022-08-21T01:39:13;98391.97;;;24.86;100.00
23417;BME280;11881;42.432;25.632;2022-08-21T01:41:40;98384.72;;;24.53;100.00
23417;BME280;11881;42.432;25.632;2022-08-21T01:44:05;98383.81;;;24.31;100.00
23417;BME280;11881;42.432;25.632;2022-08-21T01:46:31;98383.03;;;24.13;100.00
23417;BME280;11881;42.432;25.632;2022-08-21T01:48:56;98382.69;;;23.93;100.00
23417;BME280;11881;42.432;25.632;2022-08-21T01:51:22;98367.50;;;23.63;100.00
23417;BME280;11881;42.432;25.632;2022-08-21T01:53:47;98350.09;;;23.65;100.00
23417;BME280;11881;42.432;25.632;2022-08-21T01:56:15;98320.84;;;23.55;100.00
23417;BME280;11881;42.432;25.632;2022-08-21T01:58:43;98321.53;;;23.33;100.00
23417;BME280;11881;42.432;25.632;2022-08-21T02:01:09;98327.97;;;23.27;100.00
23417;BME280;11881;42.432;25.632;2022-08-21T02:03:35;98333.88;;;23.24;100.00
23417;BME280;11881;42.432;25.632;2022-08-21T02:06:00;98342.47;;;23.33;100.00
23417;BME280;11881;42.432;25.632;2022-08-21T02:08:28;98360.59;;;23.44;100.00
23417;BME280;11881;42.432;25.632;2022-08-21T02:10:53;98353.69;;;23.53;100.00
23417;BME280;11881;42.432;25.632;2022-08-21T02:13:19;98357.22;;;23.54;100.00
23417;BME280;11881;42.432;25.632;2022-08-21T02:15:45;98372.25;;;23.56;100.00
23417;BME280;11881;42.432;25.632;2022-08-21T02:18:11;98378.81;;;23.44;100.00
23417;BME280;11881;42.432;25.632;2022-08-21T02:20:40;98388.06;;;23.59;100.00
23417;BME280;11881;42.432;25.632;2022-08-21T02:23:07;98396.72;;;23.56;100.00
23417;BME280;11881;42.432;25.632;2022-08-21T02:25:33;98395.16;;;23.60;100.00
23417;BME280;11881;42.432;25.632;2022-08-21T02:28:01;98412.22;;;23.56;100.00
23417;BME280;11881;42.432;25.632;2022-08-21T02:30:29;98415.69;;;23.40;100.00
23417;BME280;11881;42.432;25.632;2022-08-21T02:32:55;98408.03;;;23.36;100.00
23417;BME280;11881;42.432;25.632;2022-08-21T02:35:21;98411.38;;;23.27;100.00
23417;BME280;11881;42.432;25.632;2022-08-21T02:40:16;98415.59;;;23.34;100.00
23417;BME280;11881;42.432;25.632;2022-08-21T02:42:42;98423.69;;;23.18;100.00
23417;BME280;11881;42.432;25.632;2022-08-21T02:45:09;98421.63;;;23.08;100.00
23417;BME280;11881;42.432;25.632;2022-08-21T02:47:35;98428.00;;;23.02;100.00
23417;BME280;11881;42.432;25.632;2022-08-21T02:50:00;98423.75;;;22.94;100.00
23417;BME280;11881;42.432;25.632;2022-08-21T02:52:26;98421.66;;;22.96;100.00
23417;BME280;11881;42.432;25.632;2022-08-21T02:54:51;98430.13;;;23.00;100.00
23417;BME280;11881;42.432;25.632;2022-08-21T02:57:17;98427.75;;;23.03;100.00
23417;BME280;11881;42.432;25.632;2022-08-21T02:59:42;98434.88;;;22.93;100.00
23417;BME280;11881;42.432;25.632;2022-08-21T03:02:08;98437.34;;;22.94;100.00
23417;BME280;11881;42.432;25.632;2022-08-21T03:04:33;98451.75;;;22.95;100.00
23417;BME280;11881;42.432;25.632;2022-08-21T03:06:58;98445.81;;;23.09;100.00
23417;BME280;11881;42.432;25.632;2022-08-21T03:09:24;98456.47;;;22.99;100.00
23417;BME280;11881;42.432;25.632;2022-08-21T03:11:50;98452.47;;;23.02;100.00
23417;BME280;11881;42.432;25.632;2022-08-21T03:14:17;98455.41;;;22.89;100.00
23417;BME280;11881;42.432;25.632;2022-08-21T03:16:42;98457.66;;;22.80;100.00
23417;BME280;11881;42.432;25.632;2022-08-21T03:19:08;98459.44;;;22.98;100.00
23417;BME280;11881;42.432;25.632;2022-08-21T03:21:33;98455.28;;;22.83;100.00
23417;BME280;11881;42.432;25.632;2022-08-21T03:23:59;98465.56;;;22.81;100.00
23417;BME280;11881;42.432;25.632;2022-08-21T03:26:24;98471.22;;;22.80;100.00
23417;BME280;11881;42.432;25.632;2022-08-21T03:28:50;98479.38;;;22.68;100.00
23417;BME280;11881;42.432;25.632;2022-08-21T03:31:16;98480.44;;;22.79;100.00
23417;BME280;11881;42.432;25.632;2022-08-21T03:33:43;98481.03;;;22.81;100.00
23417;BME280;11881;42.432;25.632;2022-08-21T03:36:09;98489.06;;;22.76;100.00
23417;BME280;11881;42.432;25.632;2022-08-21T03:38:36;98492.84;;;22.75;100.00
23417;BME280;11881;42.432;25.632;2022-08-21T03:41:02;98505.25;;;22.94;100.00
23417;BME280;11881;42.432;25.632;2022-08-21T03:43:28;98507.00;;;23.00;100.00
23417;BME280;11881;42.432;25.632;2022-08-21T03:45:54;98499.56;;;22.84;100.00
23417;BME280;11881;42.432;25.632;2022-08-21T03:48:19;98505.50;;;22.93;100.00
23417;BME280;11881;42.432;25.632;2022-08-21T03:50:45;98507.00;;;22.77;100.00
23417;BME280;11881;42.432;25.632;2022-08-21T03:53:14;98506.06;;;22.95;100.00
23417;BME280;11881;42.432;25.632;2022-08-21T03:55:39;98498.88;;;23.00;100.00
23417;BME280;11881;42.432;25.632;2022-08-21T03:58:05;98507.25;;;22.99;100.00
23417;BME280;11881;42.432;25.632;2022-08-21T04:00:31;98511.59;;;23.12;100.00
23417;BME280;11881;42.432;25.632;2022-08-21T04:02:56;98512.53;;;23.17;100.00
23417;BME280;11881;42.432;25.632;2022-08-21T04:05:22;98513.84;;;23.15;100.00
23417;BME280;11881;42.432;25.632;2022-08-21T04:08:00;98517.28;;;23.22;100.00
23417;BME280;11881;42.432;25.632;2022-08-21T04:10:27;98511.25;;;23.20;100.00
23417;BME280;11881;42.432;25.632;2022-08-21T04:12:54;98510.28;;;23.26;100.00
23417;BME280;11881;42.432;25.632;2022-08-21T04:15:21;98516.16;;;23.34;100.00
23417;BME280;11881;42.432;25.632;2022-08-21T04:17:47;98515.13;;;23.24;100.00
23417;BME280;11881;42.432;25.632;2022-08-21T04:20:14;98507.19;;;23.34;100.00
23417;BME280;11881;42.432;25.632;2022-08-21T04:22:39;98514.75;;;23.44;100.00
23417;BME280;11881;42.432;25.632;2022-08-21T04:25:05;98512.50;;;23.41;100.00
23417;BME280;11881;42.432;25.632;2022-08-21T04:27:32;98513.00;;;23.38;100.00
23417;BME280;11881;42.432;25.632;2022-08-21T04:29:57;98506.88;;;23.19;100.00
23417;BME280;11881;42.432;25.632;2022-08-21T04:32:24;98506.16;;;23.12;100.00
23417;BME280;11881;42.432;25.632;2022-08-21T04:34:50;98505.66;;;23.38;100.00
23417;BME280;11881;42.432;25.632;2022-08-21T04:37:15;98511.41;;;23.42;100.00
23417;BME280;11881;42.432;25.632;2022-08-21T04:39:41;98501.38;;;23.42;100.00
23417;BME280;11881;42.432;25.632;2022-08-21T04:42:07;98507.56;;;23.38;100.00
23417;BME280;11881;42.432;25.632;2022-08-21T04:44:33;98502.91;;;23.50;100.00
23417;BME280;11881;42.432;25.632;2022-08-21T04:46:59;98498.91;;;23.41;100.00
23417;BME280;11881;42.432;25.632;2022-08-21T04:49:24;98501.47;;;23.47;100.00
23417;BME280;11881;42.432;25.632;2022-08-21T04:51:59;98499.63;;;23.36;100.00
23417;BME280;11881;42.432;25.632;2022-08-21T04:54:25;98502.94;;;23.38;100.00
23417;BME280;11881;42.432;25.632;2022-08-21T04:56:56;98499.28;;;23.32;100.00
23417;BME280;11881;42.432;25.632;2022-08-21T04:59:28;98499.03;;;23.34;100.00
23417;BME280;11881;42.432;25.632;2022-08-21T05:01:56;98493.91;;;23.49;100.00
23417;BME280;11881;42.432;25.632;2022-08-21T05:04:25;98500.03;;;23.56;100.00
23417;BME280;11881;42.432;25.632;2022-08-21T05:06:54;98502.38;;;23.65;100.00
23417;BME280;11881;42.432;25.632;2022-08-21T05:09:21;98496.94;;;23.93;100.00
23417;BME280;11881;42.432;25.632;2022-08-21T05:11:47;98501.31;;;23.77;100.00
23417;BME280;11881;42.432;25.632;2022-08-21T05:14:14;98501.16;;;23.84;100.00
23417;BME280;11881;42.432;25.632;2022-08-21T05:16:39;98508.31;;;24.19;100.00
23417;BME280;11881;42.432;25.632;2022-08-21T05:19:07;98499.63;;;24.22;100.00
23417;BME280;11881;42.432;25.632;2022-08-21T05:21:34;98499.16;;;24.25;100.00
23417;BME280;11881;42.432;25.632;2022-08-21T05:24:00;98508.41;;;24.40;100.00
23417;BME280;11881;42.432;25.632;2022-08-21T05:26:25;98505.69;;;24.40;100.00
23417;BME280;11881;42.432;25.632;2022-08-21T05:28:50;98511.72;;;24.42;100.00
23417;BME280;11881;42.432;25.632;2022-08-21T05:31:17;98508.34;;;24.35;100.00
23417;BME280;11881;42.432;25.632;2022-08-21T05:33:43;98510.69;;;24.32;100.00
23417;BME280;11881;42.432;25.632;2022-08-21T05:36:08;98510.59;;;24.27;100.00
23417;BME280;11881;42.432;25.632;2022-08-21T05:38:34;98515.44;;;24.36;100.00
23417;BME280;11881;42.432;25.632;2022-08-21T05:40:59;98515.28;;;24.43;100.00
23417;BME280;11881;42.432;25.632;2022-08-21T05:43:24;98519.91;;;24.59;100.00
23417;BME280;11881;42.432;25.632;2022-08-21T05:45:50;98530.06;;;24.47;100.00
23417;BME280;11881;42.432;25.632;2022-08-21T05:48:19;98537.56;;;24.28;100.00
23417;BME280;11881;42.432;25.632;2022-08-21T05:50:46;98526.75;;;24.16;100.00
23417;BME280;11881;42.432;25.632;2022-08-21T05:53:13;98526.66;;;24.11;100.00
23417;BME280;11881;42.432;25.632;2022-08-21T05:55:40;98530.44;;;24.10;100.00
23417;BME280;11881;42.432;25.632;2022-08-21T05:58:06;98529.84;;;23.92;100.00
23417;BME280;11881;42.432;25.632;2022-08-21T06:00:31;98529.59;;;23.93;100.00
23417;BME280;11881;42.432;25.632;2022-08-21T06:02:57;98529.53;;;24.05;100.00
23417;BME280;11881;42.432;25.632;2022-08-21T06:05:23;98531.63;;;24.14;100.00
23417;BME280;11881;42.432;25.632;2022-08-21T06:07:48;98541.94;;;24.12;100.00
23417;BME280;11881;42.432;25.632;2022-08-21T06:10:14;98535.25;;;24.20;100.00
23417;BME280;11881;42.432;25.632;2022-08-21T06:12:39;98536.28;;;24.31;100.00
23417;BME280;11881;42.432;25.632;2022-08-21T06:15:05;98526.06;;;24.38;100.00
23417;BME280;11881;42.432;25.632;2022-08-21T06:17:31;98538.59;;;24.39;100.00
23417;BME280;11881;42.432;25.632;2022-08-21T06:19:56;98536.16;;;24.54;100.00
23417;BME280;11881;42.432;25.632;2022-08-21T06:22:22;98542.25;;;24.45;100.00
23417;BME280;11881;42.432;25.632;2022-08-21T06:24:47;98539.25;;;24.46;100.00
23417;BME280;11881;42.432;25.632;2022-08-21T06:27:13;98544.56;;;24.53;100.00
23417;BME280;11881;42.432;25.632;2022-08-21T06:29:40;98541.69;;;24.59;100.00
23417;BME280;11881;42.432;25.632;2022-08-21T06:32:05;98530.63;;;24.66;100.00
23417;BME280;11881;42.432;25.632;2022-08-21T06:34:38;98535.72;;;24.62;100.00
23417;BME280;11881;42.432;25.632;2022-08-21T06:37:04;98531.69;;;24.48;100.00
23417;BME280;11881;42.432;25.632;2022-08-21T06:39:31;98526.28;;;24.20;100.00
23417;BME280;11881;42.432;25.632;2022-08-21T06:41:56;98532.91;;;24.12;100.00
23417;BME280;11881;42.432;25.632;2022-08-21T06:44:21;98534.63;;;24.30;100.00
23417;BME280;11881;42.432;25.632;2022-08-21T06:46:47;98530.94;;;24.36;100.00
23417;BME280;11881;42.432;25.632;2022-08-21T06:49:13;98519.72;;;24.66;100.00
23417;BME280;11881;42.432;25.632;2022-08-21T06:51:39;98522.00;;;24.91;100.00
23417;BME280;11881;42.432;25.632;2022-08-21T06:54:05;98524.31;;;24.99;100.00
23417;BME280;11881;42.432;25.632;2022-08-21T06:56:30;98515.16;;;25.27;100.00
23417;BME280;11881;42.432;25.632;2022-08-21T06:58:55;98526.06;;;25.49;100.00
23417;BME280;11881;42.432;25.632;2022-08-21T07:01:24;98519.19;;;25.68;100.00
23417;BME280;11881;42.432;25.632;2022-08-21T07:03:50;98524.09;;;25.88;100.00
23417;BME280;11881;42.432;25.632;2022-08-21T07:06:16;98523.53;;;26.13;100.00
23417;BME280;11881;42.432;25.632;2022-08-21T07:08:42;98523.47;;;26.08;100.00
23417;BME280;11881;42.432;25.632;2022-08-21T07:11:20;98513.59;;;26.29;100.00
23417;BME280;11881;42.432;25.632;2022-08-21T07:13:46;98519.88;;;26.57;100.00
23417;BME280;11881;42.432;25.632;2022-08-21T07:16:11;98500.47;;;26.58;100.00
23417;BME280;11881;42.432;25.632;2022-08-21T07:18:37;98510.03;;;26.61;100.00
23417;BME280;11881;42.432;25.632;2022-08-21T07:21:04;98504.72;;;26.81;100.00
23417;BME280;11881;42.432;25.632;2022-08-21T07:23:33;98514.03;;;26.80;100.00
23417;BME280;11881;42.432;25.632;2022-08-21T07:26:00;98506.84;;;26.69;100.00
23417;BME280;11881;42.432;25.632;2022-08-21T07:28:27;98495.50;;;26.50;100.00
23417;BME280;11881;42.432;25.632;2022-08-21T07:30:54;98496.78;;;26.42;100.00
23417;BME280;11881;42.432;25.632;2022-08-21T07:33:21;98492.91;;;26.38;100.00
23417;BME280;11881;42.432;25.632;2022-08-21T07:35:46;98493.38;;;26.30;100.00
23417;BME280;11881;42.432;25.632;2022-08-21T07:38:12;98491.00;;;26.39;100.00
23417;BME280;11881;42.432;25.632;2022-08-21T07:40:37;98489.34;;;26.38;100.00
23417;BME280;11881;42.432;25.632;2022-08-21T07:43:04;98486.13;;;26.41;100.00
23417;BME280;11881;42.432;25.632;2022-08-21T07:45:29;98486.59;;;26.33;100.00
23417;BME280;11881;42.432;25.632;2022-08-21T07:47:55;98477.25;;;26.29;100.00
23417;BME280;11881;42.432;25.632;2022-08-21T07:50:20;98475.53;;;26.17;100.00
23417;BME280;11881;42.432;25.632;2022-08-21T07:52:46;98472.81;;;26.17;100.00
23417;BME280;11881;42.432;25.632;2022-08-21T07:55:15;98469.41;;;26.05;100.00
23417;BME280;11881;42.432;25.632;2022-08-21T07:57:41;98462.88;;;26.06;100.00
23417;BME280;11881;42.432;25.632;2022-08-21T08:00:10;98453.81;;;26.33;100.00
23417;BME280;11881;42.432;25.632;2022-08-21T08:02:36;98460.38;;;26.37;100.00
23417;BME280;11881;42.432;25.632;2022-08-21T08:05:04;98452.69;;;26.29;100.00
23417;BME280;11881;42.432;25.632;2022-08-21T08:07:30;98443.91;;;26.26;100.00
23417;BME280;11881;42.432;25.632;2022-08-21T08:09:55;98447.41;;;26.17;100.00
23417;BME280;11881;42.432;25.632;2022-08-21T08:12:21;98444.69;;;26.17;100.00
23417;BME280;11881;42.432;25.632;2022-08-21T08:14:46;98451.84;;;25.96;100.00
23417;BME280;11881;42.432;25.632;2022-08-21T08:17:12;98455.84;;;25.83;100.00
23417;BME280;11881;42.432;25.632;2022-08-21T08:19:39;98451.91;;;25.74;100.00
23417;BME280;11881;42.432;25.632;2022-08-21T08:22:18;98447.03;;;25.76;100.00
23417;BME280;11881;42.432;25.632;2022-08-21T08:24:50;98442.78;;;25.90;100.00
23417;BME280;11881;42.432;25.632;2022-08-21T08:27:16;98448.00;;;25.92;100.00
23417;BME280;11881;42.432;25.632;2022-08-21T08:29:42;98447.56;;;26.05;100.00
23417;BME280;11881;42.432;25.632;2022-08-21T08:32:08;98440.13;;;26.27;100.00
23417;BME280;11881;42.432;25.632;2022-08-21T08:34:34;98432.06;;;26.43;100.00
23417;BME280;11881;42.432;25.632;2022-08-21T08:37:00;98431.00;;;26.49;100.00
23417;BME280;11881;42.432;25.632;2022-08-21T08:39:26;98432.88;;;26.43;100.00
23417;BME280;11881;42.432;25.632;2022-08-21T08:42:00;98424.28;;;26.67;100.00
23417;BME280;11881;42.432;25.632;2022-08-21T08:44:29;98421.34;;;26.78;100.00
23417;BME280;11881;42.432;25.632;2022-08-21T08:46:56;98427.66;;;26.84;100.00
23417;BME280;11881;42.432;25.632;2022-08-21T08:49:35;98418.41;;;26.85;100.00
23417;BME280;11881;42.432;25.632;2022-08-21T08:52:05;98418.66;;;26.89;100.00
23417;BME280;11881;42.432;25.632;2022-08-21T08:57:07;98416.25;;;26.97;100.00
23417;BME280;11881;42.432;25.632;2022-08-21T08:59:46;98411.63;;;27.03;100.00
23417;BME280;11881;42.432;25.632;2022-08-21T09:02:14;98409.56;;;27.30;99.60
23417;BME280;11881;42.432;25.632;2022-08-21T09:04:41;98416.94;;;27.25;98.78
23417;BME280;11881;42.432;25.632;2022-08-21T09:10:02;98403.59;;;27.39;100.00
23417;BME280;11881;42.432;25.632;2022-08-21T09:15:47;98405.94;;;27.10;96.29
23417;BME280;11881;42.432;25.632;2022-08-21T09:23:49;98396.72;;;27.26;100.00
23417;BME280;11881;42.432;25.632;2022-08-21T09:26:20;98402.16;;;27.21;98.01
23417;BME280;11881;42.432;25.632;2022-08-21T09:28:52;98400.75;;;27.08;99.02
23417;BME280;11881;42.432;25.632;2022-08-21T09:31:31;98389.84;;;27.23;100.00
23417;BME280;11881;42.432;25.632;2022-08-21T09:34:06;98397.25;;;27.28;100.00
23417;BME280;11881;42.432;25.632;2022-08-21T09:36:43;98394.22;;;27.14;100.00
23417;BME280;11881;42.432;25.632;2022-08-21T09:39:11;98398.03;;;27.18;96.62
23417;BME280;11881;42.432;25.632;2022-08-21T09:41:38;98389.81;;;27.08;100.00
23417;BME280;11881;42.432;25.632;2022-08-21T09:44:05;98396.97;;;27.14;94.27
23417;BME280;11881;42.432;25.632;2022-08-21T09:46:32;98395.06;;;27.30;96.91
23417;BME280;11881;42.432;25.632;2022-08-21T09:49:00;98405.16;;;27.24;95.07
23417;BME280;11881;42.432;25.632;2022-08-21T09:51:29;98400.78;;;27.18;92.46
23417;BME280;11881;42.432;25.632;2022-08-21T09:56:35;98400.28;;;27.31;93.06
23417;BME280;11881;42.432;25.632;2022-08-21T09:59:32;98406.31;;;27.39;94.65
23417;BME280;11881;42.432;25.632;2022-08-21T10:02:01;98404.69;;;27.38;95.48
23417;BME280;11881;42.432;25.632;2022-08-21T10:04:30;98415.59;;;27.27;94.98
23417;BME280;11881;42.432;25.632;2022-08-21T10:07:13;98402.19;;;27.36;93.96
23417;BME280;11881;42.432;25.632;2022-08-21T10:09:40;98399.19;;;27.33;96.66
23417;BME280;11881;42.432;25.632;2022-08-21T10:12:17;98393.69;;;27.22;99.36
23417;BME280;11881;42.432;25.632;2022-08-21T10:20:18;98384.91;;;27.15;100.00
23417;BME280;11881;42.432;25.632;2022-08-21T10:25:31;98383.72;;;26.91;100.00
23417;BME280;11881;42.432;25.632;2022-08-21T10:28:10;98381.16;;;26.74;100.00
23417;BME280;11881;42.432;25.632;2022-08-21T10:33:18;98378.44;;;26.74;100.00
23417;BME280;11881;42.432;25.632;2022-08-21T10:36:03;98374.88;;;26.73;100.00
23417;BME280;11881;42.432;25.632;2022-08-21T10:41:39;98375.69;;;26.69;100.00
23417;BME280;11881;42.432;25.632;2022-08-21T10:45:07;98367.38;;;26.53;100.00
23417;BME280;11881;42.432;25.632;2022-08-21T10:47:21;98364.38;;;26.50;100.00
23417;BME280;11881;42.432;25.632;2022-08-21T10:55:04;98361.44;;;26.67;100.00
23417;BME280;11881;42.432;25.632;2022-08-21T10:57:54;98364.75;;;26.69;100.00
23417;BME280;11881;42.432;25.632;2022-08-21T11:00:29;98364.75;;;26.69;100.00
23417;BME280;11881;42.432;25.632;2022-08-21T11:03:16;98358.50;;;26.73;100.00
23417;BME280;11881;42.432;25.632;2022-08-21T11:05:49;98357.91;;;26.71;100.00
23417;BME280;11881;42.432;25.632;2022-08-21T11:08:24;98356.00;;;26.72;100.00
23417;BME280;11881;42.432;25.632;2022-08-21T11:13:47;98359.56;;;26.77;100.00
23417;BME280;11881;42.432;25.632;2022-08-21T11:21:59;98346.50;;;26.79;100.00
23417;BME280;11881;42.432;25.632;2022-08-21T11:27:28;98348.72;;;26.93;100.00
23417;BME280;11881;42.432;25.632;2022-08-21T11:29:59;98345.97;;;26.88;100.00
23417;BME280;11881;42.432;25.632;2022-08-21T11:40:31;98339.13;;;26.90;100.00
23417;BME280;11881;42.432;25.632;2022-08-21T11:45:50;98324.69;;;27.00;100.00
23417;BME280;11881;42.432;25.632;2022-08-21T11:51:22;98330.41;;;26.93;100.00
23417;BME280;11881;42.432;25.632;2022-08-21T11:56:45;98323.88;;;27.04;100.00
23417;BME280;11881;42.432;25.632;2022-08-21T11:59:25;98323.38;;;27.18;100.00
23417;BME280;11881;42.432;25.632;2022-08-21T12:01:55;98319.03;;;27.22;100.00
23417;BME280;11881;42.432;25.632;2022-08-21T12:05:27;98317.13;;;27.22;100.00
23417;BME280;11881;42.432;25.632;2022-08-21T12:09:57;98313.53;;;27.17;100.00
23417;BME280;11881;42.432;25.632;2022-08-21T12:17:38;98300.72;;;27.27;99.96
23417;BME280;11881;42.432;25.632;2022-08-21T12:23:12;98286.50;;;27.56;99.56
23417;BME280;11881;42.432;25.632;2022-08-21T12:25:47;98289.53;;;27.70;98.12
23417;BME280;11881;42.432;25.632;2022-08-21T12:28:24;98289.53;;;27.75;100.00
23417;BME280;11881;42.432;25.632;2022-08-21T12:30:50;98286.25;;;27.83;100.00
23417;BME280;11881;42.432;25.632;2022-08-21T12:35:51;98289.50;;;28.00;97.15
23417;BME280;11881;42.432;25.632;2022-08-21T12:38:21;98285.94;;;28.15;96.18
23417;BME280;11881;42.432;25.632;2022-08-21T12:40:57;98298.50;;;28.21;95.13
23417;BME280;11881;42.432;25.632;2022-08-21T12:43:42;98303.44;;;28.34;91.94
23417;BME280;11881;42.432;25.632;2022-08-21T12:46:29;98302.56;;;28.54;94.50
23417;BME280;11881;42.432;25.632;2022-08-21T12:48:59;98314.03;;;28.61;93.30
23417;BME280;11881;42.432;25.632;2022-08-21T12:51:33;98310.16;;;28.73;93.36
23417;BME280;11881;42.432;25.632;2022-08-21T12:54:01;98307.47;;;28.57;93.08
23417;BME280;11881;42.432;25.632;2022-08-21T12:56:30;98314.84;;;28.62;95.87
23417;BME280;11881;42.432;25.632;2022-08-21T12:59:02;98313.31;;;28.35;94.95
23417;BME280;11881;42.432;25.632;2022-08-21T13:02:07;98317.09;;;28.29;91.89
23417;BME280;11881;42.432;25.632;2022-08-21T13:04:36;98320.41;;;28.26;93.42
23417;BME280;11881;42.432;25.632;2022-08-21T13:07:08;98309.78;;;28.04;95.10
23417;BME280;11881;42.432;25.632;2022-08-21T13:09:44;98315.53;;;27.93;94.25
23417;BME280;11881;42.432;25.632;2022-08-21T13:12:12;98311.69;;;27.94;94.93
23417;BME280;11881;42.432;25.632;2022-08-21T13:14:42;98312.22;;;28.06;92.86
23417;BME280;11881;42.432;25.632;2022-08-21T13:17:10;98306.22;;;28.04;93.54
23417;BME280;11881;42.432;25.632;2022-08-21T13:19:36;98309.22;;;28.02;92.93
23417;BME280;11881;42.432;25.632;2022-08-21T13:22:02;98308.41;;;27.92;92.90
23417;BME280;11881;42.432;25.632;2022-08-21T13:24:31;98308.13;;;27.93;95.71
23417;BME280;11881;42.432;25.632;2022-08-21T13:26:57;98301.84;;;27.98;91.72
23417;BME280;11881;42.432;25.632;2022-08-21T13:29:28;98301.56;;;27.99;90.78
23417;BME280;11881;42.432;25.632;2022-08-21T13:32:05;98309.53;;;27.96;92.59
23417;BME280;11881;42.432;25.632;2022-08-21T13:34:36;98304.06;;;27.91;90.78
23417;BME280;11881;42.432;25.632;2022-08-21T13:37:08;98297.19;;;27.93;91.56
23417;BME280;11881;42.432;25.632;2022-08-21T13:39:36;98300.19;;;28.02;91.72
23417;BME280;11881;42.432;25.632;2022-08-21T13:42:04;98291.94;;;28.12;90.95
23417;BME280;11881;42.432;25.632;2022-08-21T13:44:39;98288.66;;;28.25;90.23
23417;BME280;11881;42.432;25.632;2022-08-21T13:47:06;98283.69;;;28.48;92.49
23417;BME280;11881;42.432;25.632;2022-08-21T13:49:38;98280.38;;;28.46;89.56
23417;BME280;11881;42.432;25.632;2022-08-21T13:52:14;98266.13;;;28.54;93.83
23417;BME280;11881;42.432;25.632;2022-08-21T13:54:41;98260.91;;;28.52;92.10
23417;BME280;11881;42.432;25.632;2022-08-21T13:57:18;98257.31;;;28.62;93.83
23417;BME280;11881;42.432;25.632;2022-08-21T13:59:44;98255.66;;;28.66;93.06
23417;BME280;11881;42.432;25.632;2022-08-21T14:02:15;98245.69;;;28.80;91.18
23417;BME280;11881;42.432;25.632;2022-08-21T14:04:54;98250.34;;;28.80;93.73
23417;BME280;11881;42.432;25.632;2022-08-21T14:07:29;98243.78;;;28.76;92.73
23417;BME280;11881;42.432;25.632;2022-08-21T14:09:55;98237.81;;;28.69;90.80
23417;BME280;11881;42.432;25.632;2022-08-21T14:12:58;98245.25;;;28.58;91.02